createdAt,value
2023-05-28T00:00:09.806Z,16.90
2023-05-28T00:02:41.032Z,16.90
2023-05-28T00:05:08.406Z,16.90
2023-05-28T00:07:35.908Z,16.90
2023-05-28T00:10:02.952Z,17.10
2023-05-28T00:12:30.185Z,16.90
2023-05-28T00:14:57.212Z,17.10
2023-05-28T00:17:24.331Z,16.90
2023-05-28T00:19:51.451Z,16.90
2023-05-28T00:22:19.263Z,17.00
2023-05-28T00:24:46.380Z,16.80
2023-05-28T00:27:13.445Z,16.80
2023-05-28T00:29:40.593Z,16.70
2023-05-28T00:32:07.891Z,16.70
2023-05-28T00:34:35.013Z,16.80
2023-05-28T00:37:02.276Z,16.70
2023-05-28T00:39:30.013Z,16.80
2023-05-28T00:42:04.221Z,16.60
2023-05-28T00:44:32.740Z,16.90
2023-05-28T00:47:00.955Z,16.50
2023-05-28T00:49:28.735Z,16.40
2023-05-28T00:51:57.408Z,16.40
2023-05-28T00:54:24.744Z,16.30
2023-05-28T00:56:54.102Z,16.50
2023-05-28T00:59:23.030Z,16.50
2023-05-28T01:01:50.111Z,16.10
2023-05-28T01:04:17.849Z,16.20
2023-05-28T01:06:45.287Z,14.60
2023-05-28T01:09:12.648Z,15.50
2023-05-28T01:11:41.056Z,16.10
2023-05-28T01:14:08.478Z,16.20
2023-05-28T01:16:36.376Z,16.60
2023-05-28T01:19:10.571Z,14.70
2023-05-28T01:21:42.628Z,16.00
2023-05-28T01:24:10.535Z,15.40
2023-05-28T01:26:37.663Z,16.10
2023-05-28T01:29:14.472Z,16.10
2023-05-28T01:31:42.041Z,16.00
2023-05-28T01:34:09.886Z,15.90
2023-05-28T01:36:39.300Z,15.70
2023-05-28T01:39:07.257Z,15.70
2023-05-28T01:41:34.299Z,15.80
2023-05-28T01:44:01.500Z,15.90
2023-05-28T01:46:29.743Z,15.90
2023-05-28T01:48:57.052Z,15.70
2023-05-28T01:51:24.280Z,15.60
2023-05-28T01:53:53.358Z,15.50
2023-05-28T01:56:20.808Z,15.40
2023-05-28T01:58:48.333Z,15.40
2023-05-28T02:01:16.043Z,15.60
2023-05-28T02:03:43.894Z,15.60
2023-05-28T02:06:12.397Z,15.60
2023-05-28T02:08:39.449Z,15.40
2023-05-28T02:11:06.494Z,15.50
2023-05-28T02:13:35.082Z,15.30
2023-05-28T02:16:02.515Z,15.40
2023-05-28T02:18:29.622Z,15.30
2023-05-28T02:20:57.023Z,15.40
2023-05-28T02:23:26.144Z,15.50
2023-05-28T02:25:53.338Z,15.30
2023-05-28T02:28:20.668Z,15.30
2023-05-28T02:30:47.686Z,15.40
2023-05-28T02:33:17.777Z,15.50
2023-05-28T02:35:46.244Z,15.60
2023-05-28T02:38:13.480Z,15.70
2023-05-28T02:40:40.638Z,15.50
2023-05-28T02:43:07.717Z,15.40
2023-05-28T02:45:34.708Z,15.40
2023-05-28T02:48:03.913Z,15.30
2023-05-28T02:50:31.359Z,15.30
2023-05-28T02:53:22.164Z,15.40
2023-05-28T02:55:50.509Z,15.30
2023-05-28T02:58:18.790Z,15.30
2023-05-28T03:00:47.612Z,15.30
2023-05-28T03:03:15.341Z,15.30
2023-05-28T03:05:43.259Z,15.10
2023-05-28T03:08:10.825Z,15.20
2023-05-28T03:10:39.529Z,15.10
2023-05-28T03:13:06.686Z,14.90
2023-05-28T03:15:33.994Z,14.90
2023-05-28T03:18:01.211Z,15.00
2023-05-28T03:20:30.438Z,14.80
2023-05-28T03:22:59.059Z,14.90
2023-05-28T03:25:27.209Z,15.00
2023-05-28T03:27:55.053Z,14.90
2023-05-28T03:30:25.967Z,14.90
2023-05-28T03:32:55.762Z,14.90
2023-05-28T03:35:23.365Z,14.80
2023-05-28T03:37:50.779Z,14.80
2023-05-28T03:40:18.178Z,14.70
2023-05-28T03:42:45.177Z,14.80
2023-05-28T03:45:12.646Z,14.90
2023-05-28T03:47:39.664Z,14.90
2023-05-28T03:50:07.340Z,14.90
2023-05-28T03:52:34.343Z,15.00
2023-05-28T03:55:01.495Z,15.00
2023-05-28T03:57:28.909Z,14.90
2023-05-28T03:59:58.432Z,15.30
2023-05-28T04:02:25.738Z,15.10
2023-05-28T04:04:53.140Z,15.10
2023-05-28T04:07:20.163Z,15.10
2023-05-28T04:09:47.199Z,15.10
2023-05-28T04:12:16.127Z,15.00
2023-05-28T04:14:43.760Z,15.40
2023-05-28T04:17:13.141Z,15.30
2023-05-28T04:19:40.653Z,15.30
2023-05-28T04:22:08.024Z,15.30
2023-05-28T04:24:35.033Z,15.30
2023-05-28T04:27:02.314Z,15.60
2023-05-28T04:29:31.524Z,15.50
2023-05-28T04:31:58.813Z,15.60
2023-05-28T04:34:26.131Z,15.50
2023-05-28T04:36:53.343Z,15.50
2023-05-28T04:39:22.291Z,15.70
2023-05-28T04:41:50.302Z,15.60
2023-05-28T04:44:17.370Z,15.70
2023-05-28T04:46:46.461Z,15.90
2023-05-28T04:49:13.721Z,16.00
2023-05-28T04:51:41.272Z,16.00
2023-05-28T04:54:08.540Z,15.80
2023-05-28T04:56:36.507Z,16.00
2023-05-28T04:59:06.218Z,16.20
2023-05-28T05:01:36.985Z,16.40
2023-05-28T05:04:04.982Z,16.20
2023-05-28T05:06:34.427Z,16.40
2023-05-28T05:09:01.743Z,16.70
2023-05-28T05:11:28.967Z,17.00
2023-05-28T05:13:56.030Z,16.90
2023-05-28T05:16:24.230Z,16.90
2023-05-28T05:18:51.334Z,16.80
2023-05-28T05:21:18.587Z,17.00
2023-05-28T05:23:45.706Z,17.30
2023-05-28T05:26:18.101Z,17.40
2023-05-28T05:28:45.812Z,17.50
2023-05-28T05:31:15.036Z,17.50
2023-05-28T05:33:42.416Z,17.50
2023-05-28T05:36:33.523Z,17.80
2023-05-28T05:39:23.440Z,17.60
2023-05-28T05:42:02.692Z,17.90
2023-05-28T05:44:33.437Z,17.90
2023-05-28T05:47:01.044Z,17.90
2023-05-28T05:49:27.984Z,17.90
2023-05-28T05:51:55.016Z,18.10
2023-05-28T05:54:22.098Z,18.30
2023-05-28T05:56:49.870Z,18.50
2023-05-28T05:59:17.034Z,18.60
2023-05-28T06:01:44.504Z,18.80
2023-05-28T06:04:11.642Z,18.90
2023-05-28T06:07:13.899Z,19.00
2023-05-28T06:09:52.810Z,19.00
2023-05-28T06:12:32.535Z,18.90
2023-05-28T06:15:01.748Z,19.00
2023-05-28T06:17:28.719Z,18.90
2023-05-28T06:19:55.686Z,18.90
2023-05-28T06:22:23.868Z,19.20
2023-05-28T06:24:53.523Z,19.40
2023-05-28T06:27:20.806Z,19.50
2023-05-28T06:29:47.984Z,19.60
2023-05-28T06:32:15.387Z,19.80
2023-05-28T06:34:44.402Z,20.00
2023-05-28T06:37:11.591Z,20.10
2023-05-28T06:39:38.503Z,20.20
2023-05-28T06:42:07.127Z,20.40
2023-05-28T06:44:40.069Z,20.40
2023-05-28T06:47:13.977Z,20.50
2023-05-28T06:49:42.161Z,20.70
2023-05-28T06:52:09.506Z,20.80
2023-05-28T06:54:36.513Z,20.90
2023-05-28T06:57:05.354Z,21.00
2023-05-28T06:59:55.549Z,21.00
2023-05-28T07:02:41.289Z,21.10
2023-05-28T07:05:21.707Z,21.20
2023-05-28T07:07:49.418Z,21.30
2023-05-28T07:10:17.079Z,21.40
2023-05-28T07:12:44.703Z,21.50
2023-05-28T07:15:12.153Z,21.60
2023-05-28T07:17:39.966Z,21.60
2023-05-28T07:20:08.289Z,21.70
2023-05-28T07:23:07.877Z,21.80
2023-05-28T07:25:34.922Z,21.90
2023-05-28T07:28:02.109Z,21.90
2023-05-28T07:30:34.449Z,21.80
2023-05-28T07:33:05.295Z,21.80
2023-05-28T07:35:32.407Z,21.90
2023-05-28T07:37:59.951Z,21.70
2023-05-28T07:40:27.274Z,21.90
2023-05-28T07:43:14.190Z,22.00
2023-05-28T07:45:41.419Z,22.10
2023-05-28T07:48:10.397Z,21.90
2023-05-28T07:50:58.200Z,21.90
2023-05-28T07:53:47.359Z,22.10
2023-05-28T07:56:23.228Z,22.30
2023-05-28T07:58:51.175Z,22.60
2023-05-28T08:01:22.636Z,22.60
2023-05-28T08:03:52.472Z,22.60
2023-05-28T08:06:22.773Z,22.40
2023-05-28T08:08:49.912Z,22.20
2023-05-28T08:11:17.726Z,22.20
2023-05-28T08:13:44.787Z,22.30
2023-05-28T08:16:12.921Z,22.50
2023-05-28T08:18:58.812Z,22.60
2023-05-28T08:21:26.523Z,22.60
2023-05-28T08:23:56.365Z,22.60
2023-05-28T08:26:23.421Z,22.70
2023-05-28T08:28:50.385Z,22.60
2023-05-28T08:31:17.685Z,22.50
2023-05-28T08:33:54.695Z,22.50
2023-05-28T08:36:21.794Z,22.50
2023-05-28T08:38:52.462Z,22.50
2023-05-28T08:41:21.072Z,22.80
2023-05-28T08:43:49.280Z,22.80
2023-05-28T08:46:17.124Z,22.60
2023-05-28T08:49:03.684Z,22.90
2023-05-28T08:51:34.497Z,22.90
2023-05-28T08:54:02.311Z,23.00
2023-05-28T08:56:30.518Z,22.60
2023-05-28T08:58:58.035Z,22.50
2023-05-28T09:01:25.214Z,22.70
2023-05-28T09:04:07.518Z,22.60
2023-05-28T09:06:39.741Z,22.70
2023-05-28T09:09:11.144Z,22.40
2023-05-28T09:11:49.427Z,22.70
2023-05-28T09:14:19.608Z,22.80
2023-05-28T09:16:49.804Z,22.80
2023-05-28T09:19:21.053Z,22.90
2023-05-28T09:21:53.587Z,23.00
2023-05-28T09:24:29.454Z,23.10
2023-05-28T09:27:24.823Z,23.10
2023-05-28T09:29:52.890Z,23.10
2023-05-28T09:32:23.452Z,23.00
2023-05-28T09:34:51.294Z,23.00
2023-05-28T09:37:18.984Z,23.00
2023-05-28T09:39:45.953Z,22.90
2023-05-28T09:42:14.486Z,23.00
2023-05-28T09:44:42.042Z,23.20
2023-05-28T09:47:18.132Z,23.30
2023-05-28T09:49:48.675Z,23.20
2023-05-28T09:52:20.921Z,23.10
2023-05-28T09:54:56.731Z,23.30
2023-05-28T09:57:25.978Z,23.20
2023-05-28T09:59:55.278Z,23.30
2023-05-28T10:02:22.317Z,23.20
2023-05-28T10:04:53.702Z,23.20
2023-05-28T10:07:21.492Z,23.20
2023-05-28T10:09:48.873Z,23.30
2023-05-28T10:12:22.114Z,23.20
2023-05-28T10:14:50.184Z,23.30
2023-05-28T10:17:37.134Z,23.20
2023-05-28T10:20:06.203Z,23.30
2023-05-28T10:22:33.763Z,23.00
2023-05-28T10:25:01.905Z,23.20
2023-05-28T10:27:31.290Z,23.30
2023-05-28T10:29:58.253Z,23.30
2023-05-28T10:32:25.250Z,23.50
2023-05-28T10:35:01.467Z,23.50
2023-05-28T10:37:28.439Z,23.40
2023-05-28T10:39:55.577Z,23.40
2023-05-28T10:42:22.619Z,23.50
2023-05-28T10:44:53.638Z,23.40
2023-05-28T10:47:20.723Z,23.30
2023-05-28T10:50:15.058Z,23.20
2023-05-28T10:52:45.079Z,23.30
2023-05-28T10:55:13.474Z,23.50
2023-05-28T10:57:47.767Z,23.50
2023-05-28T11:00:23.190Z,23.50
2023-05-28T11:02:53.076Z,23.60
2023-05-28T11:05:26.568Z,23.60
2023-05-28T11:07:54.034Z,23.60
2023-05-28T11:10:21.258Z,23.50
2023-05-28T11:12:48.919Z,23.70
2023-05-28T11:15:16.338Z,23.70
2023-05-28T11:17:44.520Z,23.70
2023-05-28T11:20:28.722Z,23.70
2023-05-28T11:22:56.708Z,23.60
2023-05-28T11:25:26.601Z,23.80
2023-05-28T11:27:55.020Z,23.80
2023-05-28T11:30:22.456Z,23.80
2023-05-28T11:32:49.857Z,24.00
2023-05-28T11:35:18.872Z,24.00
2023-05-28T11:37:46.876Z,24.00
2023-05-28T11:40:14.981Z,24.10
2023-05-28T11:42:43.097Z,24.00
2023-05-28T11:45:13.099Z,24.00
2023-05-28T11:50:25.223Z,24.00
2023-05-28T11:52:52.245Z,24.10
2023-05-28T11:55:19.281Z,24.10
2023-05-28T11:57:56.447Z,24.00
2023-05-28T12:00:35.143Z,24.10
2023-05-28T12:03:02.519Z,24.10
2023-05-28T12:05:39.438Z,24.00
2023-05-28T12:08:13.155Z,24.00
2023-05-28T12:10:40.294Z,23.90
2023-05-28T12:13:07.271Z,23.90
2023-05-28T12:15:34.351Z,24.00
2023-05-28T12:18:02.288Z,24.00
2023-05-28T12:20:33.078Z,24.00
2023-05-28T12:23:04.444Z,24.10
2023-05-28T12:25:44.183Z,23.90
2023-05-28T12:28:19.158Z,23.90
2023-05-28T12:30:49.996Z,24.10
2023-05-28T12:33:20.408Z,24.20
2023-05-28T12:35:47.455Z,24.20
2023-05-28T12:38:14.926Z,24.40
2023-05-28T12:40:42.127Z,24.30
2023-05-28T12:43:09.171Z,24.30
2023-05-28T12:45:38.009Z,24.30
2023-05-28T12:48:05.475Z,24.30
2023-05-28T12:50:32.746Z,24.20
2023-05-28T12:52:59.961Z,24.30
2023-05-28T12:55:27.158Z,24.40
2023-05-28T12:57:54.381Z,24.40
2023-05-28T13:00:21.825Z,24.40
2023-05-28T13:02:49.259Z,24.30
2023-05-28T13:05:16.776Z,24.30
2023-05-28T13:07:44.574Z,24.30
2023-05-28T13:10:14.341Z,24.30
2023-05-28T13:12:42.558Z,24.40
2023-05-28T13:15:09.961Z,24.40
2023-05-28T13:17:37.162Z,24.40
2023-05-28T13:20:11.773Z,24.30
2023-05-28T13:22:39.587Z,24.30
2023-05-28T13:25:07.501Z,24.30
2023-05-28T13:27:34.790Z,24.40
2023-05-28T13:30:03.351Z,24.50
2023-05-28T13:32:30.648Z,24.50
2023-05-28T13:34:59.628Z,24.40
2023-05-28T13:37:27.488Z,24.50
2023-05-28T13:39:54.761Z,24.50
2023-05-28T13:42:26.957Z,24.50
2023-05-28T13:44:54.347Z,24.50
2023-05-28T13:47:22.301Z,24.60
2023-05-28T13:49:49.222Z,24.60
2023-05-28T13:52:16.235Z,24.60
2023-05-28T13:54:43.236Z,24.50
2023-05-28T13:57:10.880Z,24.50
2023-05-28T13:59:37.798Z,24.40
2023-05-28T14:02:04.911Z,24.50
2023-05-28T14:04:31.972Z,24.50
2023-05-28T14:06:59.004Z,24.50
2023-05-28T14:09:26.106Z,24.50
2023-05-28T14:14:23.291Z,24.40
2023-05-28T14:16:51.223Z,24.50
2023-05-28T14:19:18.947Z,24.50
2023-05-28T14:21:46.452Z,24.50
2023-05-28T14:24:13.525Z,24.50
2023-05-28T14:26:40.463Z,24.30
2023-05-28T14:29:07.568Z,24.40
2023-05-28T14:31:34.542Z,24.30
2023-05-28T14:34:01.486Z,24.30
2023-05-28T14:36:28.437Z,24.30
2023-05-28T14:38:55.538Z,24.40
2023-05-28T14:41:22.515Z,24.40
2023-05-28T14:43:49.489Z,24.30
2023-05-28T14:46:16.661Z,24.30
2023-05-28T14:48:44.007Z,24.30
2023-05-28T14:51:13.318Z,24.30
2023-05-28T14:53:40.404Z,24.20
2023-05-28T14:56:07.539Z,24.20
2023-05-28T14:58:35.693Z,24.20
2023-05-28T15:01:04.081Z,24.20
2023-05-28T15:03:31.778Z,24.20
2023-05-28T15:05:59.199Z,24.20
2023-05-28T15:08:29.677Z,24.10
2023-05-28T15:10:57.928Z,24.10
2023-05-28T15:13:24.935Z,24.10
2023-05-28T15:15:52.165Z,23.90
2023-05-28T15:18:19.792Z,24.10
2023-05-28T15:20:46.786Z,24.20
2023-05-28T15:23:13.904Z,24.20
2023-05-28T15:25:41.116Z,24.10
2023-05-28T15:28:09.710Z,24.10
2023-05-28T15:30:36.710Z,24.00
2023-05-28T15:33:03.942Z,24.00
2023-05-28T15:35:31.037Z,24.00
2023-05-28T15:37:58.106Z,23.90
2023-05-28T15:40:25.279Z,23.90
2023-05-28T15:42:56.195Z,23.80
2023-05-28T15:45:24.714Z,23.80
2023-05-28T15:47:51.909Z,24.00
2023-05-28T15:50:19.022Z,24.10
2023-05-28T15:52:46.031Z,23.90
2023-05-28T15:55:13.101Z,23.90
2023-05-28T15:57:40.235Z,23.80
2023-05-28T16:00:07.950Z,23.90
2023-05-28T16:02:42.629Z,23.80
2023-05-28T16:05:10.336Z,23.80
2023-05-28T16:07:37.423Z,23.80
2023-05-28T16:10:04.495Z,23.70
2023-05-28T16:12:31.532Z,23.70
2023-05-28T16:14:58.942Z,23.70
2023-05-28T16:17:27.272Z,23.70
2023-05-28T16:19:54.385Z,23.60
2023-05-28T16:22:21.474Z,23.50
2023-05-28T16:24:48.770Z,23.40
2023-05-28T16:27:15.885Z,23.40
2023-05-28T16:29:45.207Z,23.20
2023-05-28T16:32:16.999Z,23.20
2023-05-28T16:34:44.528Z,23.20
2023-05-28T16:37:11.847Z,23.20
2023-05-28T16:39:38.899Z,23.20
2023-05-28T16:42:06.053Z,23.20
2023-05-28T16:44:33.180Z,23.10
2023-05-28T16:47:00.960Z,23.20
2023-05-28T16:49:28.374Z,23.20
2023-05-28T16:51:58.561Z,23.10
2023-05-28T16:54:30.777Z,23.10
2023-05-28T16:56:58.025Z,23.00
2023-05-28T16:59:27.425Z,23.00
2023-05-28T17:01:55.003Z,22.90
2023-05-28T17:04:21.928Z,22.90
2023-05-28T17:06:56.528Z,22.90
2023-05-28T17:09:23.858Z,22.80
2023-05-28T17:11:51.502Z,22.70
2023-05-28T17:14:18.614Z,22.70
2023-05-28T17:16:46.076Z,22.60
2023-05-28T17:19:13.187Z,22.60
2023-05-28T17:21:40.159Z,22.60
2023-05-28T17:24:08.084Z,22.60
2023-05-28T17:26:35.110Z,22.50
2023-05-28T17:29:02.058Z,22.50
2023-05-28T17:31:29.154Z,22.40
2023-05-28T17:33:56.570Z,22.40
2023-05-28T17:36:23.631Z,22.30
2023-05-28T17:38:50.830Z,22.30
2023-05-28T17:41:18.263Z,22.20
2023-05-28T17:43:45.994Z,22.20
2023-05-28T17:46:13.349Z,22.20
2023-05-28T17:48:40.679Z,22.10
2023-05-28T17:51:09.999Z,22.10
2023-05-28T17:53:43.284Z,22.10
2023-05-28T17:56:14.539Z,22.00
2023-05-28T17:58:41.627Z,22.00
2023-05-28T18:01:08.733Z,21.90
2023-05-28T18:03:37.750Z,21.90
2023-05-28T18:06:05.165Z,21.80
2023-05-28T18:08:32.200Z,21.80
2023-05-28T18:10:59.158Z,21.70
2023-05-28T18:13:26.523Z,21.70
2023-05-28T18:15:55.430Z,21.60
2023-05-28T18:18:23.212Z,21.60
2023-05-28T18:20:50.245Z,21.50
2023-05-28T18:23:17.434Z,21.50
2023-05-28T18:25:44.440Z,21.40
2023-05-28T18:28:12.338Z,21.40
2023-05-28T18:30:42.518Z,21.30
2023-05-28T18:33:10.015Z,21.30
2023-05-28T18:35:36.997Z,21.30
2023-05-28T18:38:04.079Z,21.20
2023-05-28T18:40:31.299Z,21.10
2023-05-28T18:42:59.260Z,21.10
2023-05-28T18:45:27.009Z,21.00
2023-05-28T18:47:54.143Z,21.00
2023-05-28T18:50:21.356Z,20.90
2023-05-28T18:52:48.316Z,20.90
2023-05-28T18:55:15.275Z,20.90
2023-05-28T18:57:42.199Z,20.80
2023-05-28T19:00:09.968Z,20.80
2023-05-28T19:02:37.024Z,20.70
2023-05-28T19:05:04.542Z,20.70
2023-05-28T19:07:31.483Z,20.70
2023-05-28T19:10:02.004Z,20.60
2023-05-28T19:12:30.044Z,20.50
2023-05-28T19:14:59.895Z,20.50
2023-05-28T19:17:27.271Z,20.50
2023-05-28T19:19:54.247Z,20.40
2023-05-28T19:22:21.196Z,20.40
2023-05-28T19:24:49.882Z,20.30
2023-05-28T19:27:16.968Z,20.30
2023-05-28T19:29:43.933Z,20.30
2023-05-28T19:32:11.090Z,20.20
2023-05-28T19:34:38.112Z,20.20
2023-05-28T19:37:05.157Z,20.10
2023-05-28T19:39:32.193Z,20.10
2023-05-28T19:41:59.286Z,20.00
2023-05-28T19:44:29.014Z,20.00
2023-05-28T19:46:56.154Z,20.00
2023-05-28T19:49:23.189Z,20.00
2023-05-28T19:51:50.139Z,19.90
2023-05-28T19:54:17.136Z,19.90
2023-05-28T19:56:44.219Z,19.90
2023-05-28T19:59:11.333Z,19.80
2023-05-28T20:01:38.357Z,19.80
2023-05-28T20:04:06.060Z,19.80
2023-05-28T20:06:33.119Z,19.70
2023-05-28T20:09:00.214Z,19.60
2023-05-28T20:11:27.381Z,19.60
2023-05-28T20:13:54.559Z,19.50
2023-05-28T20:16:21.702Z,19.50
2023-05-28T20:18:49.901Z,19.50
2023-05-28T20:21:18.413Z,19.50
2023-05-28T20:23:45.538Z,19.40
2023-05-28T20:26:12.486Z,19.30
2023-05-28T20:28:39.525Z,19.40
2023-05-28T20:31:06.580Z,19.30
2023-05-28T20:33:33.758Z,19.30
2023-05-28T20:36:01.740Z,19.30
2023-05-28T20:38:28.660Z,19.20
2023-05-28T20:40:55.758Z,19.20
2023-05-28T20:43:23.713Z,19.10
2023-05-28T20:45:50.778Z,19.10
2023-05-28T20:48:17.803Z,19.10
2023-05-28T20:50:44.713Z,19.10
2023-05-28T20:53:11.693Z,19.10
2023-05-28T20:55:38.616Z,19.00
2023-05-28T20:58:05.573Z,19.00
2023-05-28T21:00:33.238Z,18.90
2023-05-28T21:03:00.510Z,18.90
2023-05-28T21:05:27.642Z,18.90
2023-05-28T21:07:54.676Z,18.80
2023-05-28T21:10:21.664Z,18.80
2023-05-28T21:12:48.756Z,18.80
2023-05-28T21:15:18.604Z,18.70
2023-05-28T21:17:47.144Z,18.60
2023-05-28T21:20:14.177Z,18.70
2023-05-28T21:22:42.181Z,18.60
2023-05-28T21:25:09.445Z,18.60
2023-05-28T21:27:37.939Z,18.60
2023-05-28T21:30:05.118Z,18.60
2023-05-28T21:32:32.152Z,18.50
2023-05-28T21:34:59.390Z,18.50
2023-05-28T21:37:26.440Z,18.50
2023-05-28T21:39:54.331Z,18.40
2023-05-28T21:42:21.349Z,18.40
2023-05-28T21:44:48.286Z,18.40
2023-05-28T21:47:15.222Z,18.30
2023-05-28T21:49:42.186Z,18.20
2023-05-28T21:52:09.115Z,18.20
2023-05-28T21:54:36.149Z,18.20
2023-05-28T21:57:04.388Z,18.30
2023-05-28T21:59:31.780Z,18.00
2023-05-28T22:01:58.926Z,18.20
2023-05-28T22:04:25.994Z,18.20
2023-05-28T22:06:53.059Z,18.20
2023-05-28T22:09:21.020Z,18.20
2023-05-28T22:11:48.154Z,18.20
2023-05-28T22:14:20.386Z,18.00
2023-05-28T22:16:48.945Z,18.00
2023-05-28T22:19:18.243Z,18.00
2023-05-28T22:21:45.674Z,18.10
2023-05-28T22:24:12.884Z,18.10
2023-05-28T22:26:39.871Z,18.10
2023-05-28T22:29:06.866Z,18.10
2023-05-28T22:31:33.913Z,18.10
2023-05-28T22:34:02.062Z,18.10
2023-05-28T22:36:29.140Z,17.90
2023-05-28T22:38:56.249Z,18.10
2023-05-28T22:41:23.366Z,18.00
2023-05-28T22:43:50.477Z,17.90
2023-05-28T22:46:17.767Z,17.90
2023-05-28T22:48:44.793Z,17.70
2023-05-28T22:51:12.624Z,17.70
2023-05-28T22:53:41.577Z,17.70
2023-05-28T22:56:13.637Z,17.70
2023-05-28T22:58:41.540Z,17.70
2023-05-28T23:01:08.804Z,17.60
2023-05-28T23:03:35.847Z,17.60
2023-05-28T23:06:03.695Z,17.60
2023-05-28T23:08:30.872Z,17.50
2023-05-28T23:10:59.622Z,17.60
2023-05-28T23:13:27.172Z,17.70
2023-05-28T23:15:55.146Z,17.60
2023-05-28T23:18:22.257Z,17.60
2023-05-28T23:20:49.303Z,17.40
2023-05-28T23:23:16.394Z,17.50
2023-05-28T23:25:43.297Z,17.50
2023-05-28T23:28:10.934Z,17.50
2023-05-28T23:30:38.169Z,17.60
2023-05-28T23:33:05.711Z,17.60
2023-05-28T23:35:32.685Z,17.60
2023-05-28T23:37:59.714Z,17.60
2023-05-28T23:40:26.896Z,17.50
2023-05-28T23:42:53.844Z,17.40
2023-05-28T23:45:20.791Z,17.20
2023-05-28T23:47:47.752Z,17.30
2023-05-28T23:50:14.700Z,17.30
2023-05-28T23:52:41.603Z,17.40
2023-05-28T23:55:08.703Z,17.40
2023-05-28T23:57:35.743Z,17.40
